Weather observations for the past three days for
McCook, McCook Municipal Airport
Imperial (Metric)
Date Time (cdt) Wind (mph) Vis. (mi.) Weather Sky Cond. Temperature (ºF) Relative Humidity Wind Chill (°F) Heat Index (°F) Pressure Precipitation (in)
Air Dwpt 6 hour altimeter (in) sea level (mb) 1 hr 3 hr 6 hr
Max. Min.
05 16:53 SE 18 10.00 Fair CLR 97 59 28% 97 29.91 1009.4
05 15:53 E 21 G 29 10.00 Fair and Breezy CLR 98.1 59 27% 98 29.93 1010.2
05 12:53 SE 13 10.00 Fair CLR 91.9 63 93 68 38% 93 29.98 1011.9
05 11:53 SE 13 10.00 Fair CLR 90 64 42% 91 29.98 1012.1
05 10:53 E 9 10.00 Fair CLR 84.9 62.1 46% 85 29.98 1012.1
05 09:53 E 5 10.00 Fair CLR 80.1 66 62% 82 29.97 1011.8
05 08:53 Calm 10.00 Fair CLR 75 64.9 71% 77 29.96 1011.6
05 07:53 Calm 10.00 Fair CLR 70 64 82% 29.94 1011.2
05 06:53 E 3 10.00 Fair CLR 68 64 81 68 87% 29.93 1010.6
05 05:53 SW 3 10.00 Fair CLR 73 64 74% 29.93 1010.4
05 04:53 W 5 10.00 Fair CLR 73.9 63 69% 29.94 1010.6
05 03:53 SE 5 10.00 Fair CLR 77 64 64% 79 29.94 1010.3
05 02:53 Calm 10.00 Fair CLR 77 64 64% 79 29.93 1010.2
05 01:53 E 5 10.00 Fair CLR 79 63 58% 81 29.94 1010.4
05 00:53 S 6 10.00 Fair CLR 81 63 96.1 77 54% 82 29.91 1009.7
04 23:53 E 5 10.00 Fair CLR 81 63 54% 82 29.92 1010.0
04 22:53 S 10 10.00 Fair CLR 84 62.1 48% 85 29.91 1009.9
04 21:53 SE 12 10.00 Fair CLR 86 62.1 45% 87 29.9 1009.4
04 20:53 SE 12 10.00 A Few Clouds FEW100 86 64 48% 87 29.87 1008.8
04 19:53 SE 13 10.00 Fair CLR 88 64 45% 89 29.87 1008.4
04 18:53 SE 14 10.00 Fair CLR 96.1 63 100 90 34% 98 29.85 1007.7
04 17:53 SE 14 G 25 10.00 Fair CLR 99 64.9 33% 102 29.84 1007.4
04 16:53 SE 16 G 23 10.00 Fair CLR 98.1 64.9 34% 101 29.85 1007.6
04 15:53 SE 15 10.00 Fair CLR 100 64 31% 103 29.86 1008.0
04 14:53 SE 21 G 31 10.00 Fair and Breezy CLR 97 63 33% 99 29.87 1008.4
04 13:53 SE 16 G 25 10.00 Fair CLR 95 66 39% 98 29.88 1008.8
04 12:53 SE 15 10.00 Thunderstorm in Vicinity CLR 90 66 90 68 45% 93 29.9 1009.8
04 11:53 SE 13 10.00 Fair CLR 87.1 66 50% 89 29.92 1010.2
04 10:53 E 7 10.00 Fair CLR 80.1 66.9 64% 82 29.91 1010.5
04 09:53 E 6 10.00 Fair CLR 78.1 64.9 64% 80 29.92 1010.5
04 08:53 E 5 10.00 A Few Clouds FEW090 72 64 76% 29.91 1010.1
04 07:53 E 8 10.00 Fair CLR 71.1 62.1 73% 29.89 1009.1
04 06:53 E 5 10.00 Fair CLR 70 61 72 64.9 73% 29.88 1008.9
04 05:53 SE 6 10.00 Fair CLR 69.1 61 76% 29.88 1008.8
04 04:53 S 5 10.00 Fair CLR 71.1 61 71% 29.87 1008.6
04 03:53 E 3 10.00 Fair CLR 69.1 62.1 78% 29.86 1008.3
04 02:53 NE 7 10.00 Fair CLR 66.9 62.1 84% 29.86 1008.4
04 01:53 NE 3 10.00 NULL NULL 64.9 61 87% 29.88 1009.2
04 00:53 N 6 10.00 NULL NULL 68 61 91 66 78% 29.87 1008.9
03 23:53 E 3 10.00 Fair CLR 70 61 73% 29.88 1009.0
03 22:53 NE 6 10.00 Fair CLR 70 61 73% 29.88 1009.3
03 21:53 NE 6 10.00 Fair CLR 75.9 60.1 58% 78 29.87 1008.9
03 20:53 NE 6 10.00 Fair CLR 79 62.1 56% 80 29.86 1008.7
03 19:53 Calm 10.00 Fair CLR 89.1 61 39% 89 29.85 1008.1
03 18:53 NE 7 10.00 Fair CLR 91 59 93.9 86 34% 90 29.84 1007.7
03 17:53 E 8 10.00 Fair CLR 93 60.1 33% 93 29.83 1007.3
03 16:53 N 8 10.00 Fair CLR 93 60.1 33% 93 29.83 1007.2
03 15:53 N 12 10.00 Fair CLR 93 62.1 36% 94 29.83 1007.3
03 14:53 Vrbl 5 10.00 Fair CLR 90 64 42% 91 29.84 1007.4
03 13:53 NE 3 8.00 Fair CLR 88 64 45% 89 29.85 1007.9
03 12:53 Vrbl 5 10.00 Fair CLR 86 63 86 63 46% 87 29.86 1008.4
03 11:53 E 6 10.00 Fair CLR 82.9 63 51% 84 29.86 1008.3
03 10:53 Vrbl 5 10.00 Fair CLR 79 62.1 56% 80 29.84 1007.8
03 09:53 SW 7 10.00 Fair CLR 75.9 61 60% 78 29.84 1007.8
03 08:53 S 3 10.00 Fair CLR 71.1 61 71% 29.85 1008.0
03 07:53 NE 3 10.00 Fair CLR 64.9 60.1 84% 29.84 1007.8
03 06:53 NE 3 10.00 Fair CLR 66 59 73.9 64 78% 29.84 1007.5
03 05:53 NE 5 10.00 Fair CLR 64.9 57.9 78% 29.83 1007.3
03 04:53 Calm 10.00 Fair CLR 66.9 57.9 73% 29.84 1007.5
03 03:53 N 7 10.00 Fair CLR 66.9 57 71% 29.84 1007.5
03 02:53 Calm 10.00 Fair CLR 69.1 55.9 63% 29.84 1007.4
03 01:53 W 3 10.00 Fair CLR 66.9 55 66% 29.84 1007.5
03 00:53 W 7 10.00 Fair CLR 72 53.1 93.9 72 52% 29.82 1007.0
02 23:53 W 8 10.00 Fair CLR 73 55 53% 29.82 1006.9
02 22:53 W 7 10.00 Fair CLR 75 57 54% 78 29.82 1007.1
02 21:53 S 8 10.00 Fair CLR 79 57.9 49% 80 29.82 1006.9
02 20:53 S 6 10.00 Fair CLR 84 57.9 41% 83 29.8 1006.6
02 19:53 SE 5 10.00 Fair CLR 89.1 60.1 38% 89 29.79 1006.1
02 18:53 S 7 10.00 Fair CLR 93.9 59 96.1 88 31% 93 29.8 1006.0
02 17:53 S 8 10.00 Fair CLR 96.1 61 31% 97 29.81 1006.2
Date Time (cdt) Wind (mph) Vis. (mi.) Weather Sky Cond. Air Dwpt Max. Min. Relative Humidity Wind Chill (°F) Heat Index (°F) altimeter (in) sea level (mb) 1 hr 3 hr 6 hr
6 hour
Temperature (ºF) Pressure Precipitation (in)